Time;durP1;ratioP1;P1;durP2;ratioP2;P2;SDS_P1;SDS_P2;PMS_P1;PMS_P2;Temp;Humidity;BMP_temperature;BMP_pressure;BME280_temperature;BME280_humidity;BME280_pressure;Samples;Min_cycle;Max_cycle;Signal;HPM_P1;HPM_P2
2023/10/08 00:00:45;;;;;;;1.80;1.20;;;12.20;99.90;;;;;;5036080;28;20703;-58
2023/10/08 00:03:13;;;;;;;3.77;1.27;;;12.20;99.90;;;;;;5016109;28;20202;-57
2023/10/08 00:05:41;;;;;;;6.43;1.63;;;12.10;99.90;;;;;;5034264;28;20673;-55
2023/10/08 00:08:09;;;;;;;3.33;1.40;;;12.00;99.90;;;;;;5036567;28;20927;-64
2023/10/08 00:10:44;;;;;;;0.93;0.83;;;11.90;99.90;;;;;;5020466;28;20282;-65
2023/10/08 00:13:10;;;;;;;4.30;1.63;;;11.90;99.90;;;;;;5037853;28;20248;-58
2023/10/08 00:15:36;;;;;;;3.63;1.53;;;11.80;99.90;;;;;;5034201;28;20198;-64
2023/10/08 00:18:04;;;;;;;1.43;1.00;;;11.90;99.90;;;;;;5039971;28;20198;-63
2023/10/08 00:20:35;;;;;;;1.23;1.10;;;12.00;99.90;;;;;;5020863;28;20198;-63
2023/10/08 00:23:02;;;;;;;5.43;1.57;;;12.00;99.90;;;;;;5020578;28;20224;-57
2023/10/08 00:25:28;;;;;;;4.60;1.30;;;12.00;99.90;;;;;;5036588;28;20222;-57
2023/10/08 00:27:54;;;;;;;4.50;1.60;;;12.00;99.90;;;;;;5035028;28;20198;-59
2023/10/08 00:30:19;;;;;;;2.30;1.60;;;12.10;99.90;;;;;;5042987;28;20256;-57
2023/10/08 00:32:45;;;;;;;3.87;1.70;;;12.20;99.90;;;;;;5040045;28;20201;-58
2023/10/08 00:35:13;;;;;;;4.20;1.43;;;12.20;99.90;;;;;;5040367;28;20198;-57
2023/10/08 00:37:40;;;;;;;3.70;1.60;;;12.20;99.90;;;;;;5019815;28;20199;-55
2023/10/08 00:40:14;;;;;;;5.27;2.33;;;12.30;99.90;;;;;;5037711;28;20218;-56
2023/10/08 00:42:45;;;;;;;5.97;2.33;;;12.20;99.90;;;;;;5016791;28;20209;-56
2023/10/08 00:45:13;;;;;;;3.80;1.73;;;12.20;99.90;;;;;;5032768;28;20213;-55
2023/10/08 00:47:43;;;;;;;4.83;1.73;;;12.10;99.90;;;;;;5031229;28;20202;-56
2023/10/08 00:50:20;;;;;;;3.10;1.40;;;12.10;99.90;;;;;;5034996;28;20552;-56
2023/10/08 00:52:59;;;;;;;4.47;1.30;;;12.10;99.90;;;;;;5036979;28;20309;-57
2023/10/08 00:55:28;;;;;;;3.07;1.77;;;12.20;99.90;;;;;;5033696;28;20233;-56
2023/10/08 00:57:58;;;;;;;3.97;1.87;;;12.20;99.90;;;;;;5035345;28;20215;-57
2023/10/08 01:00:32;;;;;;;4.70;1.30;;;12.30;99.90;;;;;;5037352;28;20209;-57
2023/10/08 01:03:01;;;;;;;2.30;1.47;;;12.40;99.90;;;;;;5032051;28;20199;-56
2023/10/08 01:06:10;;;;;;;2.50;1.40;;;12.40;99.90;;;;;;5034489;28;20210;-57
2023/10/08 01:08:34;;;;;;;4.50;1.70;;;12.50;99.90;;;;;;5022242;28;20202;-56
2023/10/08 01:11:15;;;;;;;1.50;1.40;;;12.30;99.90;;;;;;5032247;28;20237;-55
2023/10/08 01:13:45;;;;;;;4.10;1.50;;;12.30;99.90;;;;;;5031818;28;20221;-56
2023/10/08 01:16:11;;;;;;;3.20;1.43;;;12.40;99.90;;;;;;5032969;28;20213;-57
2023/10/08 01:18:36;;;;;;;4.50;1.47;;;12.20;99.90;;;;;;5033125;28;20193;-57
2023/10/08 01:21:08;;;;;;;3.07;1.30;;;12.20;99.90;;;;;;5031023;28;20233;-56
2023/10/08 01:23:34;;;;;;;4.57;1.87;;;12.20;99.90;;;;;;5030964;28;20195;-56
2023/10/08 01:26:11;;;;;;;9.07;1.77;;;12.10;99.90;;;;;;5037451;28;20210;-56
2023/10/08 01:28:37;;;;;;;4.73;1.77;;;12.30;99.90;;;;;;5033533;28;20248;-56
2023/10/08 01:31:04;;;;;;;5.77;1.50;;;12.30;99.90;;;;;;5035196;28;20214;-56
2023/10/08 01:33:31;;;;;;;3.30;1.63;;;12.30;99.90;;;;;;5034500;28;20198;-56
2023/10/08 01:36:03;;;;;;;2.70;1.60;;;12.20;99.90;;;;;;5035647;28;20193;-56
2023/10/08 01:38:29;;;;;;;5.50;1.67;;;12.10;99.90;;;;;;5032941;28;20538;-55
2023/10/08 01:40:56;;;;;;;6.27;1.77;;;12.10;99.90;;;;;;5036271;28;20714;-56
2023/10/08 01:43:22;;;;;;;2.17;1.60;;;12.30;99.90;;;;;;5032922;28;20570;-56
2023/10/08 01:45:52;;;;;;;6.33;2.20;;;12.10;99.90;;;;;;5028972;28;20934;-56
2023/10/08 01:48:28;;;;;;;4.33;2.03;;;12.20;99.90;;;;;;5017178;28;20317;-56
2023/10/08 01:51:08;;;;;;;5.67;2.07;;;12.20;99.90;;;;;;5031997;28;20676;-57
2023/10/08 01:53:38;;;;;;;7.83;2.10;;;12.00;99.90;;;;;;5037666;28;21011;-57
2023/10/08 01:56:04;;;;;;;7.03;2.37;;;12.10;99.90;;;;;;5032018;28;20562;-57
2023/10/08 01:58:30;;;;;;;6.10;2.27;;;12.00;99.90;;;;;;5029923;28;20248;-57
2023/10/08 02:00:59;;;;;;;9.43;5.50;;;12.00;99.90;;;;;;5012970;28;20647;-56
2023/10/08 02:03:27;;;;;;;3.67;2.67;;;11.90;99.90;;;;;;5015895;28;20210;-56
2023/10/08 02:05:53;;;;;;;9.10;2.43;;;11.80;99.90;;;;;;5016650;28;20257;-55
2023/10/08 02:08:20;;;;;;;4.77;3.30;;;11.90;99.90;;;;;;5038793;28;20221;-56
2023/10/08 02:10:49;;;;;;;5.10;2.57;;;11.90;99.90;;;;;;5017298;28;20205;-56
2023/10/08 02:13:16;;;;;;;10.43;3.47;;;11.90;99.90;;;;;;5031627;28;20191;-55
2023/10/08 02:15:44;;;;;;;4.73;2.97;;;11.90;99.90;;;;;;5034839;28;20864;-56
2023/10/08 02:18:10;;;;;;;5.90;2.63;;;11.80;99.90;;;;;;5037464;28;20198;-56
2023/10/08 02:20:36;;;;;;;3.57;2.73;;;11.80;99.90;;;;;;5016211;28;20577;-56
2023/10/08 02:23:01;;;;;;;8.20;2.83;;;11.80;99.90;;;;;;5032816;28;20214;-56
2023/10/08 02:25:27;;;;;;;8.20;3.70;;;11.80;99.90;;;;;;5031536;28;20299;-56
2023/10/08 02:27:53;;;;;;;11.03;3.53;;;11.80;99.90;;;;;;5036241;28;20220;-56
2023/10/08 02:30:18;;;;;;;8.23;3.50;;;11.80;99.90;;;;;;5036959;28;20205;-56
2023/10/08 02:32:46;;;;;;;8.73;3.70;;;11.90;99.90;;;;;;5018368;28;20204;-56
2023/10/08 02:35:12;;;;;;;5.03;2.77;;;11.90;99.90;;;;;;5036231;28;20254;-55
2023/10/08 02:37:39;;;;;;;4.93;2.73;;;11.90;99.90;;;;;;5031783;28;20786;-54
2023/10/08 02:40:19;;;;;;;7.03;3.30;;;12.00;99.90;;;;;;5035649;28;20197;-55
2023/10/08 02:42:45;;;;;;;5.57;3.10;;;12.10;99.90;;;;;;5014805;28;20204;-55
2023/10/08 02:45:13;;;;;;;9.57;3.83;;;12.00;99.90;;;;;;5033501;28;20216;-56
2023/10/08 02:47:41;;;;;;;7.17;4.07;;;11.90;99.90;;;;;;5037100;28;20721;-57
2023/10/08 02:50:08;;;;;;;6.17;2.77;;;11.90;99.90;;;;;;5036378;28;20198;-57
2023/10/08 02:52:33;;;;;;;6.83;3.70;;;11.90;99.90;;;;;;5019158;28;20309;-57
2023/10/08 02:55:00;;;;;;;7.27;3.23;;;12.00;99.90;;;;;;5039751;28;20251;-58
2023/10/08 02:57:29;;;;;;;7.87;3.87;;;12.00;99.90;;;;;;5035495;28;20238;-57
2023/10/08 02:59:54;;;;;;;5.77;2.93;;;12.00;99.90;;;;;;5023959;28;20205;-56
2023/10/08 03:02:21;;;;;;;7.67;2.93;;;12.10;99.90;;;;;;5039425;28;20214;-57
2023/10/08 03:04:48;;;;;;;10.63;3.40;;;12.20;99.90;;;;;;5033086;28;20213;-56
2023/10/08 03:07:33;;;;;;;10.97;3.20;;;12.30;99.90;;;;;;5035244;28;20209;-64
2023/10/08 03:10:17;;;;;;;7.17;3.23;;;12.30;99.90;;;;;;5029152;28;20829;-57
2023/10/08 03:12:44;;;;;;;5.53;3.17;;;12.40;99.90;;;;;;5036981;28;20196;-61
2023/10/08 03:15:27;;;;;;;5.27;2.83;;;12.40;99.90;;;;;;5034641;28;20393;-54
2023/10/08 03:17:54;;;;;;;9.73;3.47;;;12.40;99.90;;;;;;5036620;28;20783;-54
2023/10/08 03:20:42;;;;;;;8.83;2.57;;;12.30;99.90;;;;;;5039934;28;20521;-55
2023/10/08 03:23:12;;;;;;;8.07;3.17;;;12.20;99.90;;;;;;5030611;28;20190;-55
2023/10/08 03:25:41;;;;;;;8.33;2.87;;;12.20;99.90;;;;;;5038654;28;20234;-55
2023/10/08 03:28:12;;;;;;;4.10;2.90;;;12.10;99.90;;;;;;5034824;28;20214;-55
2023/10/08 03:30:47;;;;;;;7.50;3.00;;;12.00;99.90;;;;;;5035258;28;20199;-54
2023/10/08 03:33:21;;;;;;;11.33;2.90;;;12.00;99.90;;;;;;5016641;28;20272;-54
2023/10/08 03:35:54;;;;;;;7.90;3.70;;;12.10;99.90;;;;;;5032882;28;20222;-55
2023/10/08 03:41:08;;;;;;;7.40;3.13;;;11.90;99.90;;;;;;5038740;28;20742;-54
2023/10/08 03:43:35;;;;;;;7.13;3.00;;;11.90;99.90;;;;;;5036958;28;20243;-53
2023/10/08 03:46:14;;;;;;;8.60;3.07;;;11.90;99.90;;;;;;5032041;28;20226;-53
2023/10/08 03:48:40;;;;;;;7.07;2.23;;;11.80;99.90;;;;;;5029884;28;20216;-54
2023/10/08 03:51:11;;;;;;;6.90;3.03;;;11.90;99.90;;;;;;5017048;28;20206;-55
2023/10/08 03:56:24;;;;;;;11.33;3.93;;;12.00;99.90;;;;;;5035563;28;20232;-54
2023/10/08 03:58:53;;;;;;;5.53;3.10;;;12.10;99.90;;;;;;5036149;28;20608;-54
2023/10/08 04:01:20;;;;;;;5.83;2.77;;;12.20;99.90;;;;;;5035408;28;20560;-54
2023/10/08 04:06:22;;;;;;;8.13;3.30;;;12.20;99.90;;;;;;5071803;23;20239;-54
2023/10/08 04:11:35;;;;;;;8.30;3.20;;;12.10;99.90;;;;;;5002111;28;20213;-54
2023/10/08 04:14:03;;;;;;;8.67;2.80;;;12.00;99.90;;;;;;4989296;28;20203;-56
2023/10/08 04:16:36;;;;;;;5.03;2.27;;;12.10;99.90;;;;;;4996646;28;20198;-54
2023/10/08 04:19:03;;;;;;;7.10;2.63;;;12.20;99.90;;;;;;4999166;28;20193;-54
2023/10/08 04:21:31;;;;;;;5.17;2.33;;;12.30;99.90;;;;;;5012314;28;20205;-55
2023/10/08 04:23:57;;;;;;;7.00;2.87;;;12.40;99.90;;;;;;5000091;28;20200;-54
2023/10/08 04:26:23;;;;;;;7.43;3.03;;;12.40;99.90;;;;;;5012187;28;20570;-54
2023/10/08 04:29:02;;;;;;;7.00;2.83;;;12.40;99.90;;;;;;5012454;28;20213;-54
2023/10/08 04:31:37;;;;;;;4.70;2.30;;;12.40;99.90;;;;;;5009926;28;20283;-54
2023/10/08 04:34:15;;;;;;;4.93;2.03;;;12.40;99.90;;;;;;4994485;28;20226;-54
2023/10/08 04:36:45;;;;;;;5.70;2.43;;;12.40;99.90;;;;;;5013568;28;20213;-54
2023/10/08 04:39:21;;;;;;;11.53;2.73;;;12.30;99.90;;;;;;5010254;28;20356;-54
2023/10/08 04:41:48;;;;;;;5.73;2.67;;;12.30;99.90;;;;;;4989814;28;20202;-54
2023/10/08 04:44:15;;;;;;;5.20;2.17;;;12.30;99.90;;;;;;5005171;28;20269;-54
2023/10/08 04:46:49;;;;;;;5.43;2.40;;;12.30;99.90;;;;;;5011931;28;20213;-54
2023/10/08 04:49:28;;;;;;;5.47;2.77;;;12.20;99.90;;;;;;5008154;28;20255;-54
2023/10/08 04:52:08;;;;;;;10.03;3.80;;;12.30;99.90;;;;;;5015134;28;20211;-56
2023/10/08 04:54:39;;;;;;;4.87;2.47;;;12.40;99.90;;;;;;5013868;28;20196;-54
2023/10/08 04:57:07;;;;;;;8.17;2.80;;;12.20;99.90;;;;;;5008135;28;20223;-54
2023/10/08 04:59:33;;;;;;;6.40;2.83;;;12.30;99.90;;;;;;5002297;28;20296;-54
2023/10/08 05:12:45;;;;;;;6.67;3.47;;;12.00;99.90;;;;;;5006797;28;20273;-54
2023/10/08 05:23:20;;;;;;;5.73;2.60;;;11.90;99.90;;;;;;5000235;28;20296;-54
2023/10/08 05:28:35;;;;;;;6.00;2.20;;;12.00;99.90;;;;;;5006388;28;20230;-54
2023/10/08 05:36:28;;;;;;;3.40;2.13;;;12.10;99.90;;;;;;5008499;28;20210;-53
2023/10/08 05:39:00;;;;;;;3.43;3.03;;;12.10;99.90;;;;;;5011882;28;20698;-54
2023/10/08 05:41:38;;;;;;;5.80;2.30;;;12.10;99.90;;;;;;5006459;28;20264;-54
2023/10/08 05:44:23;;;;;;;5.23;2.77;;;12.10;99.90;;;;;;4986121;28;20678;-53
2023/10/08 05:47:12;;;;;;;3.27;2.10;;;12.00;99.90;;;;;;5006084;28;20203;-53
2023/10/08 06:05:20;;;;;;;6.53;3.20;;;12.10;99.90;;;;;;5008997;28;20217;-59
2023/10/08 06:18:26;;;;;;;7.03;3.23;;;12.10;99.90;;;;;;5011811;28;20199;-59
2023/10/08 06:21:08;;;;;;;6.37;3.17;;;12.20;99.90;;;;;;5007770;28;20203;-60
2023/10/08 06:23:39;;;;;;;6.47;2.97;;;12.20;99.90;;;;;;4988710;28;20993;-58
2023/10/08 06:28:41;;;;;;;5.40;3.03;;;12.20;99.90;;;;;;5002198;28;20252;-56
2023/10/08 06:31:11;;;;;;;8.40;2.57;;;12.20;99.90;;;;;;5000334;28;20660;-58
2023/10/08 06:33:37;;;;;;;5.53;2.73;;;12.10;99.90;;;;;;4999162;28;20206;-56
2023/10/08 06:36:13;;;;;;;10.30;2.97;;;12.00;99.90;;;;;;5013582;28;20195;-56
2023/10/08 06:38:40;;;;;;;8.47;2.83;;;12.00;99.90;;;;;;4995214;28;20207;-59
2023/10/08 06:41:15;;;;;;;12.73;2.70;;;12.00;99.90;;;;;;5001419;28;20200;-57
2023/10/08 06:43:49;;;;;;;7.40;3.20;;;12.20;99.90;;;;;;5004128;28;20231;-55
2023/10/08 06:46:21;;;;;;;6.07;2.77;;;12.10;99.90;;;;;;5002914;28;20744;-57
2023/10/08 06:48:49;;;;;;;8.57;2.47;;;12.10;99.90;;;;;;4999414;28;20275;-54
2023/10/08 06:51:15;;;;;;;5.33;2.40;;;12.30;99.90;;;;;;4977797;28;20219;-57
2023/10/08 06:53:44;;;;;;;5.30;2.40;;;12.30;99.90;;;;;;5010578;28;20210;-62
2023/10/08 06:56:12;;;;;;;4.17;2.10;;;12.30;99.90;;;;;;5017248;28;20269;-67
2023/10/08 06:58:48;;;;;;;6.83;2.83;;;12.50;99.90;;;;;;5000433;28;20206;-58
2023/10/08 07:01:19;;;;;;;7.03;2.83;;;12.70;99.90;;;;;;5016439;28;20615;-59
2023/10/08 07:03:49;;;;;;;9.00;3.00;;;12.90;99.90;;;;;;5016990;28;20199;-59
2023/10/08 07:06:16;;;;;;;5.07;2.63;;;12.80;99.90;;;;;;5018319;28;20752;-58
2023/10/08 07:08:46;;;;;;;4.20;2.07;;;12.90;99.90;;;;;;5016939;28;21029;-59
2023/10/08 07:11:12;;;;;;;5.13;1.90;;;13.00;99.90;;;;;;5010727;28;20199;-66
2023/10/08 07:13:40;;;;;;;3.07;2.20;;;13.00;99.90;;;;;;5009887;28;20207;-55
2023/10/08 07:16:11;;;;;;;3.27;1.97;;;13.10;99.90;;;;;;4990757;28;20218;-56
2023/10/08 07:18:39;;;;;;;4.53;2.13;;;13.20;99.90;;;;;;5001764;28;20195;-65
2023/10/08 07:21:12;;;;;;;3.83;1.50;;;13.20;99.90;;;;;;5005399;28;20234;-58
2023/10/08 07:23:55;;;;;;;2.97;1.90;;;13.00;99.90;;;;;;5016891;28;20669;-58
2023/10/08 07:26:24;;;;;;;3.27;1.77;;;12.90;99.90;;;;;;5006527;28;20222;-58
2023/10/08 07:28:51;;;;;;;4.67;2.10;;;12.70;99.90;;;;;;5015814;28;20952;-58
2023/10/08 07:31:23;;;;;;;3.80;1.80;;;12.80;99.90;;;;;;5017042;28;20199;-58
2023/10/08 07:33:56;;;;;;;4.30;1.83;;;12.90;99.90;;;;;;5002068;28;20203;-58
2023/10/08 07:36:26;;;;;;;3.43;1.63;;;12.90;99.90;;;;;;5012395;28;20214;-58
2023/10/08 07:38:53;;;;;;;1.57;1.30;;;13.00;99.90;;;;;;4997011;28;20200;-57
2023/10/08 07:41:20;;;;;;;5.70;1.50;;;12.70;99.90;;;;;;4997776;28;20559;-57
2023/10/08 07:43:55;;;;;;;2.93;1.00;;;12.70;99.90;;;;;;4996693;28;20518;-56
2023/10/08 07:46:26;;;;;;;3.37;1.37;;;12.80;99.90;;;;;;5003827;28;20218;-61
2023/10/08 07:48:52;;;;;;;1.20;1.00;;;12.90;99.90;;;;;;4989166;28;20195;-66
2023/10/08 07:51:21;;;;;;;4.03;1.63;;;13.00;99.90;;;;;;5010164;28;20214;-65
2023/10/08 07:53:57;;;;;;;1.67;1.47;;;13.00;99.90;;;;;;5003130;28;20283;-56
2023/10/08 07:56:25;;;;;;;3.33;1.20;;;12.90;99.90;;;;;;5004928;28;20215;-65
2023/10/08 07:58:52;;;;;;;5.73;1.43;;;12.90;99.90;;;;;;5008902;28;20199;-66
2023/10/08 08:01:20;;;;;;;4.07;1.93;;;12.90;99.90;;;;;;5016240;28;20201;-65
2023/10/08 08:03:48;;;;;;;3.23;1.40;;;12.90;99.90;;;;;;4978450;28;20207;-62
2023/10/08 08:06:15;;;;;;;2.60;1.70;;;13.00;99.90;;;;;;5000436;28;20652;-55
2023/10/08 08:08:41;;;;;;;4.03;1.53;;;12.90;99.90;;;;;;4985699;28;20331;-56
2023/10/08 08:11:11;;;;;;;3.87;1.57;;;12.60;99.90;;;;;;4994342;28;20673;-56
2023/10/08 08:13:43;;;;;;;2.20;1.40;;;12.80;99.90;;;;;;4984189;28;20196;-58
2023/10/08 08:16:16;;;;;;;3.03;1.77;;;12.90;99.90;;;;;;5004952;28;20217;-59
2023/10/08 08:18:43;;;;;;;4.47;1.10;;;12.90;99.90;;;;;;5009598;28;20207;-59
2023/10/08 08:21:15;;;;;;;2.90;1.03;;;12.90;99.90;;;;;;4986429;28;21056;-59
2023/10/08 08:23:48;;;;;;;3.20;1.33;;;13.10;99.90;;;;;;5002008;28;20202;-59
2023/10/08 08:26:26;;;;;;;3.73;1.13;;;13.00;99.90;;;;;;4985583;28;20733;-59
2023/10/08 08:28:56;;;;;;;1.13;1.07;;;13.00;99.90;;;;;;5005434;28;20199;-66
2023/10/08 08:31:23;;;;;;;2.60;1.30;;;13.10;99.90;;;;;;4979789;28;20237;-57
2023/10/08 08:36:48;;;;;;;1.60;1.43;;;12.80;99.90;;;;;;4978007;28;20238;-57
2023/10/08 08:39:28;;;;;;;5.03;1.20;;;13.00;99.90;;;;;;4991519;28;20657;-60
2023/10/08 08:42:00;;;;;;;3.23;1.37;;;13.10;99.90;;;;;;4996383;28;20291;-64
2023/10/08 08:44:30;;;;;;;1.50;0.87;;;13.20;99.90;;;;;;4993270;28;20227;-58
2023/10/08 08:46:58;;;;;;;2.50;1.27;;;13.30;99.90;;;;;;5004900;28;20689;-58
2023/10/08 08:49:25;;;;;;;2.67;1.30;;;13.30;99.90;;;;;;5002236;28;20678;-58
2023/10/08 08:51:53;;;;;;;2.67;1.00;;;13.30;99.90;;;;;;5007361;28;20291;-57
2023/10/08 08:54:20;;;;;;;1.47;0.70;;;13.30;99.90;;;;;;4996491;28;20287;-57
2023/10/08 08:56:46;;;;;;;1.33;1.23;;;13.00;99.90;;;;;;4995614;28;20203;-57
2023/10/08 08:59:12;;;;;;;2.20;1.43;;;13.10;99.90;;;;;;5000826;28;20203;-57
2023/10/08 09:01:42;;;;;;;1.90;1.00;;;13.20;99.90;;;;;;4993472;28;20200;-60
2023/10/08 09:04:07;;;;;;;2.50;1.13;;;13.20;99.90;;;;;;4996318;28;20196;-60
2023/10/08 09:06:37;;;;;;;3.40;0.97;;;13.20;99.90;;;;;;4996155;28;20222;-59
2023/10/08 09:09:22;;;;;;;1.40;1.00;;;13.10;99.90;;;;;;4997294;28;20293;-56
2023/10/08 09:11:51;;;;;;;3.40;0.93;;;13.30;99.90;;;;;;4983393;28;20208;-60
2023/10/08 09:14:20;;;;;;;1.37;1.00;;;13.40;99.90;;;;;;4978363;28;20264;-57
2023/10/08 09:16:46;;;;;;;0.70;0.70;;;13.10;99.90;;;;;;4996211;28;20202;-57
2023/10/08 09:19:18;;;;;;;0.90;0.90;;;13.30;99.90;;;;;;4999262;28;20214;-56
2023/10/08 09:21:59;;;;;;;0.77;0.70;;;13.40;99.90;;;;;;4997475;28;20300;-60
2023/10/08 09:24:25;;;;;;;3.90;0.70;;;13.30;99.90;;;;;;4999458;28;20209;-58
2023/10/08 09:26:52;;;;;;;0.70;0.70;;;13.60;99.90;;;;;;4980532;28;20219;-66
2023/10/08 09:29:17;;;;;;;0.97;0.63;;;13.60;99.90;;;;;;4982060;28;20215;-66
2023/10/08 09:31:58;;;;;;;1.13;0.60;;;13.60;99.90;;;;;;4997501;28;20305;-66
2023/10/08 09:34:30;;;;;;;1.17;0.70;;;13.70;99.90;;;;;;4996016;28;20209;-64
2023/10/08 09:36:57;;;;;;;1.07;0.90;;;13.70;99.90;;;;;;5005227;28;20221;-59
2023/10/08 09:39:23;;;;;;;2.10;0.90;;;13.70;99.90;;;;;;5012117;28;20213;-58
2023/10/08 09:41:50;;;;;;;1.97;0.97;;;13.70;99.90;;;;;;4997416;28;20294;-59
2023/10/08 09:44:19;;;;;;;0.80;0.73;;;13.60;99.90;;;;;;4996360;28;20211;-59
2023/10/08 09:46:49;;;;;;;1.00;0.60;;;13.50;99.90;;;;;;5003627;28;20612;-60
2023/10/08 09:49:18;;;;;;;2.73;0.70;;;13.40;99.90;;;;;;4976778;28;20740;-60
2023/10/08 09:51:45;;;;;;;1.30;1.20;;;13.70;99.90;;;;;;5006706;28;20269;-57
2023/10/08 09:54:15;;;;;;;0.67;0.67;;;13.80;99.90;;;;;;4999830;28;20207;-68
2023/10/08 09:56:43;;;;;;;0.60;0.60;;;13.90;99.90;;;;;;4991274;28;20238;-59
2023/10/08 09:59:09;;;;;;;2.43;0.73;;;13.80;99.90;;;;;;5010544;28;20196;-59
2023/10/08 10:01:41;;;;;;;3.83;1.07;;;13.70;99.90;;;;;;5004779;28;20275;-59
2023/10/08 10:04:23;;;;;;;2.97;0.93;;;13.70;99.90;;;;;;5010295;28;20376;-59
2023/10/08 10:06:50;;;;;;;1.13;0.93;;;13.60;99.90;;;;;;4984929;28;20234;-60
2023/10/08 10:09:24;;;;;;;0.70;0.70;;;13.60;98.80;;;;;;4994276;28;20195;-60
2023/10/08 10:11:50;;;;;;;1.70;0.87;;;13.80;99.80;;;;;;4988537;28;20200;-59
2023/10/08 10:14:17;;;;;;;1.33;0.60;;;13.80;99.90;;;;;;5010924;28;20597;-58
2023/10/08 10:16:47;;;;;;;0.50;0.50;;;13.80;99.90;;;;;;4995199;28;20204;-59
2023/10/08 10:19:20;;;;;;;0.73;0.60;;;13.80;98.50;;;;;;4994482;28;20219;-61
2023/10/08 10:21:47;;;;;;;3.57;1.33;;;13.90;98.00;;;;;;5005600;28;20196;-70
2023/10/08 10:24:27;;;;;;;1.40;0.77;;;14.10;94.40;;;;;;5007923;28;20195;-58
2023/10/08 10:27:15;;;;;;;3.53;0.80;;;14.20;93.50;;;;;;4988986;28;20203;-64
2023/10/08 10:29:43;;;;;;;1.87;0.80;;;14.20;92.80;;;;;;4992379;28;20207;-63
2023/10/08 10:32:17;;;;;;;1.53;1.10;;;14.40;96.30;;;;;;4999870;28;20207;-65
2023/10/08 10:34:44;;;;;;;2.00;1.10;;;14.80;97.20;;;;;;4984410;28;20318;-66
2023/10/08 10:37:19;;;;;;;3.03;1.53;;;14.90;97.20;;;;;;4999632;28;20215;-56
2023/10/08 10:39:55;;;;;;;0.97;0.90;;;15.20;96.60;;;;;;5004378;28;20207;-56
2023/10/08 10:42:20;;;;;;;1.27;0.90;;;14.90;94.90;;;;;;4983509;28;20200;-56
2023/10/08 10:44:52;;;;;;;1.93;0.70;;;14.90;94.60;;;;;;4989182;28;20697;-57
2023/10/08 10:52:34;;;;;;;1.23;0.80;;;15.80;91.60;;;;;;5001700;28;20199;-65
2023/10/08 10:55:20;;;;;;;1.20;0.90;;;15.70;91.10;;;;;;5002667;28;20191;-56
2023/10/08 10:58:11;;;;;;;1.80;1.10;;;15.80;91.70;;;;;;4996925;28;20219;-56
2023/10/08 11:03:23;;;;;;;1.13;0.93;;;15.70;92.70;;;;;;5009676;28;20200;-64
2023/10/08 11:05:54;;;;;;;1.70;0.90;;;15.80;92.80;;;;;;5003130;28;20228;-65
2023/10/08 11:08:23;;;;;;;0.83;0.70;;;16.10;92.10;;;;;;5007181;28;20203;-56
2023/10/08 11:10:51;;;;;;;1.20;1.10;;;16.60;86.10;;;;;;5009315;28;20211;-56
2023/10/08 11:13:19;;;;;;;1.57;0.90;;;17.00;90.00;;;;;;5001076;28;20198;-57
2023/10/08 11:15:49;;;;;;;1.40;0.70;;;17.20;89.50;;;;;;4988963;28;20204;-65
2023/10/08 11:18:17;;;;;;;1.23;1.10;;;17.50;85.80;;;;;;5000506;28;20224;-56
2023/10/08 11:20:51;;;;;;;1.77;0.90;;;17.90;83.20;;;;;;4970974;28;20200;-64
2023/10/08 11:23:36;;;;;;;2.53;0.87;;;17.40;81.50;;;;;;4993916;28;20191;-55
2023/10/08 11:26:06;;;;;;;3.73;0.80;;;16.70;81.80;;;;;;4998523;28;20203;-60
2023/10/08 11:28:35;;;;;;;0.93;0.60;;;16.90;85.60;;;;;;5008828;28;20592;-58
2023/10/08 11:31:08;;;;;;;2.60;1.27;;;17.10;83.10;;;;;;5008993;28;20668;-58
2023/10/08 11:33:36;;;;;;;0.60;0.60;;;17.50;80.50;;;;;;5009490;28;20214;-59
2023/10/08 11:36:06;;;;;;;1.50;0.70;;;17.50;84.30;;;;;;5008309;28;20255;-57
2023/10/08 11:38:41;;;;;;;0.87;0.70;;;17.30;83.80;;;;;;5014661;28;20198;-58
2023/10/08 11:41:20;;;;;;;5.03;1.33;;;17.00;78.40;;;;;;5005213;28;20204;-58
2023/10/08 11:43:56;;;;;;;1.87;1.23;;;17.80;81.80;;;;;;5009566;28;20234;-59
2023/10/08 11:46:40;;;;;;;1.90;1.00;;;17.40;76.10;;;;;;5012212;28;20585;-58
2023/10/08 11:49:07;;;;;;;1.30;0.73;;;17.40;77.30;;;;;;5005138;28;20792;-59
2023/10/08 11:51:34;;;;;;;0.90;0.90;;;17.90;77.70;;;;;;5004790;28;20260;-58
2023/10/08 11:54:00;;;;;;;2.27;1.00;;;18.50;77.00;;;;;;5012062;28;20237;-59
2023/10/08 11:56:28;;;;;;;30.53;12.30;;;18.20;76.60;;;;;;5011688;28;20720;-58
2023/10/08 11:58:56;;;;;;;1.50;1.37;;;18.30;73.80;;;;;;4997958;28;21047;-59
2023/10/08 12:01:23;;;;;;;1.00;0.90;;;17.90;76.80;;;;;;5013570;28;20215;-58
2023/10/08 12:03:49;;;;;;;0.80;0.80;;;18.40;72.30;;;;;;5011982;28;20203;-57
2023/10/08 12:06:18;;;;;;;0.90;0.90;;;18.50;75.10;;;;;;5009227;28;20583;-57
2023/10/08 12:08:47;;;;;;;6.67;3.03;;;18.70;74.00;;;;;;5011892;28;20669;-58
2023/10/08 12:11:13;;;;;;;1.60;1.30;;;18.70;67.60;;;;;;5004011;28;20579;-58
2023/10/08 12:13:45;;;;;;;1.70;1.17;;;18.30;65.40;;;;;;5004776;28;20237;-58
2023/10/08 12:16:20;;;;;;;1.03;0.93;;;18.10;70.40;;;;;;4987543;28;20198;-58
2023/10/08 12:18:48;;;;;;;3.53;1.30;;;18.00;68.20;;;;;;4996572;28;20203;-65
2023/10/08 12:21:15;;;;;;;1.80;1.03;;;18.20;70.90;;;;;;4984229;28;20201;-56
2023/10/08 12:23:49;;;;;;;1.43;0.93;;;18.40;68.40;;;;;;4986451;28;20235;-56
2023/10/08 12:26:15;;;;;;;0.73;0.73;;;17.90;66.60;;;;;;4998911;28;20222;-56
2023/10/08 12:28:44;;;;;;;1.93;0.60;;;18.30;72.80;;;;;;5002765;28;20669;-55
2023/10/08 12:31:11;;;;;;;1.38;1.23;;;18.10;68.00;;;;;;5000804;28;20200;-56
2023/10/08 12:33:37;;;;;;;1.70;0.80;;;18.10;67.40;;;;;;5004421;28;20199;-66
2023/10/08 12:36:10;;;;;;;1.60;1.27;;;18.70;70.60;;;;;;4985450;28;20257;-58
2023/10/08 12:38:36;;;;;;;3.50;1.13;;;19.50;66.60;;;;;;4986402;28;20273;-57
2023/10/08 12:41:11;;;;;;;1.83;1.10;;;19.90;61.80;;;;;;5008454;28;20319;-57
2023/10/08 12:43:38;;;;;;;0.77;0.77;;;19.40;65.40;;;;;;5014408;28;20208;-58
2023/10/08 12:46:10;;;;;;;0.87;0.70;;;19.00;63.30;;;;;;4991595;28;20615;-63
2023/10/08 12:48:37;;;;;;;0.73;0.73;;;19.00;64.70;;;;;;5001580;28;20644;-56
2023/10/08 12:51:05;;;;;;;1.20;0.85;;;19.50;64.90;;;;;;4995692;28;20219;-58
2023/10/08 12:53:33;;;;;;;1.42;1.00;;;19.90;65.60;;;;;;5004949;28;20192;-58
2023/10/08 12:56:05;;;;;;;1.98;1.00;;;19.50;65.20;;;;;;4999256;28;20761;-58
2023/10/08 12:58:31;;;;;;;1.90;1.30;;;19.20;66.00;;;;;;4999275;28;20733;-58
2023/10/08 13:00:57;;;;;;;1.63;0.95;;;18.70;65.00;;;;;;4997632;28;20239;-58
2023/10/08 13:03:30;;;;;;;0.63;0.63;;;18.50;67.90;;;;;;4993826;28;20591;-59
2023/10/08 13:06:03;;;;;;;0.63;0.63;;;18.70;67.10;;;;;;4997781;28;20231;-59
2023/10/08 13:08:30;;;;;;;2.15;0.68;;;18.40;64.10;;;;;;4998707;28;20591;-59
2023/10/08 13:11:00;;;;;;;1.27;0.57;;;18.40;66.90;;;;;;4999962;28;20675;-57
2023/10/08 13:13:26;;;;;;;1.00;0.70;;;18.80;63.10;;;;;;4998291;28;20212;-58
2023/10/08 13:15:55;;;;;;;0.50;0.50;;;18.90;64.10;;;;;;4983152;28;20673;-67
2023/10/08 13:18:27;;;;;;;1.30;0.90;;;18.70;65.80;;;;;;4996383;28;20204;-64
2023/10/08 13:20:52;;;;;;;0.60;0.60;;;18.30;64.90;;;;;;4999088;28;20743;-58
2023/10/08 13:23:20;;;;;;;1.30;0.60;;;18.50;66.60;;;;;;4998275;28;20196;-58
2023/10/08 13:25:53;;;;;;;2.70;0.93;;;18.50;67.20;;;;;;4995437;28;20219;-59
2023/10/08 13:28:20;;;;;;;0.90;0.50;;;18.60;66.00;;;;;;4994717;28;20857;-58
2023/10/08 13:30:46;;;;;;;2.30;1.63;;;18.70;67.40;;;;;;4995187;28;20196;-65
2023/10/08 13:33:12;;;;;;;1.10;0.90;;;18.60;69.30;;;;;;5001986;28;20208;-58
2023/10/08 13:35:38;;;;;;;2.20;1.00;;;18.60;66.00;;;;;;4998975;28;20206;-59
2023/10/08 13:38:09;;;;;;;0.53;0.53;;;18.50;64.50;;;;;;4997729;28;20192;-58
2023/10/08 13:40:39;;;;;;;0.60;0.60;;;19.30;66.30;;;;;;4994819;28;20343;-58
2023/10/08 13:43:05;;;;;;;1.03;0.93;;;19.20;62.50;;;;;;4996712;28;20674;-67
2023/10/08 13:45:33;;;;;;;1.20;1.10;;;19.30;62.70;;;;;;4978780;28;20215;-64
2023/10/08 13:48:01;;;;;;;2.53;0.73;;;20.00;64.50;;;;;;4984521;28;20188;-58
2023/10/08 13:50:30;;;;;;;1.52;0.90;;;20.60;62.70;;;;;;4992274;28;20206;-57
2023/10/08 13:52:55;;;;;;;1.05;0.80;;;21.30;60.30;;;;;;4996714;28;20296;-56
2023/10/08 13:55:25;;;;;;;1.17;0.93;;;21.30;58.90;;;;;;4998777;28;20938;-59
2023/10/08 13:57:54;;;;;;;5.80;1.83;;;21.70;59.20;;;;;;4999988;28;20284;-63
2023/10/08 14:00:25;;;;;;;2.10;0.90;;;20.60;57.10;;;;;;4996890;28;20195;-61
2023/10/08 14:02:52;;;;;;;0.82;0.80;;;20.90;60.00;;;;;;4998347;28;20211;-63
2023/10/08 14:05:23;;;;;;;1.25;0.82;;;21.10;57.60;;;;;;5000067;28;20219;-57
2023/10/08 14:07:49;;;;;;;2.38;1.35;;;20.00;58.30;;;;;;4976393;28;20639;-59
2023/10/08 14:10:18;;;;;;;0.70;0.70;;;20.20;60.80;;;;;;4994702;28;20888;-59
2023/10/08 14:12:48;;;;;;;1.70;1.13;;;20.00;59.30;;;;;;4998460;28;20198;-58
2023/10/08 14:15:16;;;;;;;0.85;0.60;;;21.40;57.00;;;;;;4994914;28;20620;-57
2023/10/08 14:17:43;;;;;;;1.77;0.70;;;22.10;54.50;;;;;;4994647;28;21060;-59